This is the latest recevied weather packets stored in our database for station/object K1BES. If no packets are shown the sender has not sent any weather packets the latest 10 day(s).
| Time | Temp. | Humidity | Pressure | Rain* | Wind** | Luminosity | Snow |
|---|---|---|---|---|---|---|---|
| 1777494880 | 27.78° C | 73% | 1016 hPa | 0 mm | - | 111 W/m² | - |
| 1777494577 | 27.78° C | 72% | 1015.7 hPa | 0 mm | - | 95 W/m² | - |
| 1777494275 | 27.78° C | 72% | 1015.7 hPa | 0 mm | - | 98 W/m² | - |
| 1777493971 | 27.78° C | 72% | 1015.7 hPa | 0 mm | - | 99 W/m² | - |
| 1777493669 | 27.78° C | 71% | 1016 hPa | 0 mm | - | 103 W/m² | - |
| 1777493367 | 28.33° C | 70% | 1016 hPa | 0 mm | - | 122 W/m² | - |
| 1777493063 | 28.33° C | 70% | 1016.1 hPa | 0 mm | - | 699 W/m² | - |
| 1777492760 | 28.89° C | 69% | 1016.1 hPa | 0 mm | - | 726 W/m² | - |
| 1777492455 | 28.89° C | 69% | 1016.5 hPa | 0 mm | - | 740 W/m² | - |
| 1777492153 | 28.89° C | 68% | 1016.3 hPa | 0 mm | - | 759 W/m² | - |
| 1777491849 | 28.89° C | 69% | 1016.5 hPa | 0 mm | - | 784 W/m² | - |
| 1777491545 | 28.89° C | 68% | 1016.5 hPa | 0 mm | - | 793 W/m² | - |
| 1777491243 | 28.89° C | 68% | 1016.6 hPa | 0 mm | - | 809 W/m² | - |
| 1777490939 | 28.89° C | 66% | 1016.7 hPa | 0 mm | - | 835 W/m² | - |
| 1777490635 | 28.89° C | 68% | 1016.6 hPa | 0 mm | - | 843 W/m² | - |
| 1777490330 | 28.89° C | 67% | 1016.9 hPa | 0 mm | - | 860 W/m² | - |
| 1777490029 | 29.44° C | 65% | 1016.9 hPa | 0 mm | - | 870 W/m² | - |
| 1777489726 | 29.44° C | 64% | 1016.9 hPa | 0 mm | - | 884 W/m² | - |
| 1777489423 | 29.44° C | 64% | 1016.8 hPa | 0 mm | - | 899 W/m² | - |
| 1777489120 | 30° C | 61% | 1017 hPa | 0 mm | - | 914 W/m² | - |
| 1777488817 | 29.44° C | 63% | 1017.1 hPa | 0 mm | - | 922 W/m² | - |
| 1777488515 | 28.89° C | 66% | 1017.1 hPa | 0 mm | - | 935 W/m² | - |
| 1777488212 | 28.89° C | 64% | 1017.5 hPa | 0 mm | - | 946 W/m² | - |
| 1777487910 | 28.89° C | 64% | 1017.1 hPa | 0 mm | - | 951 W/m² | - |
| 1777487608 | 28.89° C | 65% | 1017.2 hPa | 0 mm | - | 962 W/m² | - |
* Rain latest hour (hover to see other rain measurements)
** Current wind speed in m/s (hover to see current wind gust speed)